Time;durP1;ratioP1;P1;durP2;ratioP2;P2;SDS_P1;SDS_P2;PMS_P1;PMS_P2;Temp;Humidity;BMP_temperature;BMP_pressure;BME280_temperature;BME280_humidity;BME280_pressure;Samples;Min_cycle;Max_cycle;Signal;HPM_P1;HPM_P2
2022/09/04 00:02:05;;;;;;;10.07;7.93;;;461.40;2380.80;;;;;;5077983;28;20111;-84
2022/09/04 00:04:50;;;;;;;8.85;6.25;;;461.40;2380.80;;;;;;5088089;28;20048;-84
2022/09/04 00:07:27;;;;;;;11.48;7.35;;;461.40;2380.80;;;;;;5087270;28;20558;-83
2022/09/04 00:10:15;;;;;;;12.18;6.75;;;461.30;2380.80;;;;;;5082041;28;20507;-83
2022/09/04 00:12:59;;;;;;;7.80;6.63;;;461.30;2380.80;;;;;;5090336;28;20020;-83
2022/09/04 00:15:35;;;;;;;10.68;6.65;;;461.20;2380.80;;;;;;5082047;28;20035;-83
2022/09/04 00:18:28;;;;;;;8.23;6.40;;;461.10;2380.80;;;;;;5091008;28;20047;-83
2022/09/04 00:21:04;;;;;;;10.88;6.90;;;461.00;2380.80;;;;;;5080975;28;20027;-83
2022/09/04 00:23:57;;;;;;;19.08;6.78;;;461.10;2380.80;;;;;;5083894;28;20017;-83
2022/09/04 00:26:40;;;;;;;9.18;6.70;;;461.00;2380.80;;;;;;5086047;28;20109;-83
2022/09/04 00:29:28;;;;;;;8.05;6.18;;;460.90;2380.80;;;;;;5086008;28;20038;-84
2022/09/04 00:32:17;;;;;;;7.85;5.65;;;460.90;2380.80;;;;;;5067351;28;20021;-83
2022/09/04 00:34:55;;;;;;;7.97;6.38;;;460.90;2380.80;;;;;;5083799;28;20089;-83
2022/09/04 00:37:26;;;;;;;8.70;7.07;;;460.90;2380.80;;;;;;5088560;28;20012;-83
2022/09/04 00:40:25;;;;;;;11.10;7.38;;;460.90;2380.80;;;;;;5083254;28;20024;-83
2022/09/04 00:43:17;;;;;;;9.77;8.23;;;460.90;2380.80;;;;;;5083066;28;20025;-84
2022/09/04 00:46:03;;;;;;;10.88;8.18;;;460.90;2380.80;;;;;;5077633;28;20390;-83
2022/09/04 00:48:50;;;;;;;19.05;7.82;;;460.90;2380.80;;;;;;5067419;28;20021;-83
2022/09/04 00:51:51;;;;;;;9.68;7.70;;;461.00;2380.80;;;;;;5089833;28;20085;-83
2022/09/04 00:54:32;;;;;;;11.50;7.53;;;461.00;2380.80;;;;;;5096632;28;20032;-84
2022/09/04 00:57:28;;;;;;;10.45;7.55;;;461.00;2380.80;;;;;;5092621;28;20031;-84
2022/09/04 01:00:19;;;;;;;12.52;7.90;;;460.90;2380.80;;;;;;5072973;28;20035;-84
2022/09/04 01:03:06;;;;;;;10.20;7.07;;;460.90;2380.80;;;;;;5101423;28;20047;-83
2022/09/04 01:05:46;;;;;;;;;;;460.90;2380.80;;;;;;5089891;28;20031;-84
2022/09/04 01:08:43;;;;;;;11.25;8.10;;;436.10;2355.20;;;;;;5099555;28;19988;-84
2022/09/04 01:11:43;;;;;;;10.65;7.47;;;436.10;2355.20;;;;;;5086517;28;20481;-83
2022/09/04 01:14:21;;;;;;;15.77;8.25;;;436.10;2355.20;;;;;;5087469;28;20052;-84
2022/09/04 01:17:11;;;;;;;10.35;7.50;;;436.10;2355.20;;;;;;5103996;28;20089;-83
2022/09/04 01:19:55;;;;;;;8.95;7.53;;;436.10;2355.20;;;;;;5090968;28;20036;-83
2022/09/04 01:22:45;;;;;;;15.40;8.38;;;436.00;2355.20;;;;;;5087768;28;20035;-83
2022/09/04 01:25:10;;;;;;;9.57;7.25;;;435.90;2355.20;;;;;;5087869;28;20016;-84
2022/09/04 01:27:54;;;;;;;9.77;8.18;;;436.00;2355.20;;;;;;5084846;28;20477;-83
2022/09/04 01:30:21;;;;;;;10.80;7.75;;;435.90;2355.20;;;;;;5092084;28;20032;-84
2022/09/04 01:33:26;;;;;;;11.95;7.45;;;436.00;2355.20;;;;;;5081876;28;20497;-81
2022/09/04 01:36:01;;;;;;;12.00;7.65;;;436.10;2355.20;;;;;;5066077;28;20177;-84
2022/09/04 01:38:36;;;;;;;13.82;8.35;;;435.90;2355.20;;;;;;5079979;28;20013;-83
2022/09/04 01:41:26;;;;;;;13.43;8.33;;;435.90;2355.20;;;;;;5085564;28;20028;-81
2022/09/04 01:43:52;;;;;;;14.02;8.25;;;435.90;2355.20;;;;;;5081976;28;20062;-84
2022/09/04 01:46:21;;;;;;;11.32;8.75;;;436.10;2355.20;;;;;;5088630;28;20153;-83
2022/09/04 01:48:55;;;;;;;14.40;8.07;;;435.90;2355.20;;;;;;5080856;28;20511;-83
2022/09/04 01:51:29;;;;;;;13.10;9.40;;;435.90;2355.20;;;;;;5084972;28;20085;-84
2022/09/04 01:54:28;;;;;;;13.07;9.85;;;435.90;2355.20;;;;;;5086699;28;20016;-84
2022/09/04 01:57:13;;;;;;;10.57;8.63;;;435.90;2355.20;;;;;;5065722;28;20029;-84
2022/09/04 02:00:01;;;;;;;10.50;8.65;;;435.90;2355.20;;;;;;5082055;28;20024;-83
2022/09/04 02:02:51;;;;;;;17.05;9.00;;;435.90;2355.20;;;;;;5091958;28;20069;-83
2022/09/04 02:05:44;;;;;;;10.18;7.93;;;435.90;2355.20;;;;;;5078389;28;20101;-83
2022/09/04 02:08:22;;;;;;;12.95;8.73;;;435.90;2355.20;;;;;;5084979;28;20488;-83
2022/09/04 02:11:19;;;;;;;9.93;7.97;;;435.90;2355.20;;;;;;5085095;28;20028;-82
2022/09/04 02:13:50;;;;;;;11.38;8.90;;;435.90;2355.20;;;;;;5041734;28;20032;-82
2022/09/04 02:16:39;;;;;;;13.18;9.02;;;435.90;2355.20;;;;;;5048365;28;20048;-82
2022/09/04 02:19:11;;;;;;;11.25;8.45;;;435.80;2355.20;;;;;;5065975;28;20047;-83
2022/09/04 02:21:59;;;;;;;11.68;8.65;;;435.90;2355.20;;;;;;5050558;28;20035;-83
2022/09/04 02:24:32;;;;;;;12.27;8.68;;;435.90;2355.20;;;;;;5061009;28;20035;-83
2022/09/04 02:27:04;;;;;;;14.18;8.73;;;435.90;2355.20;;;;;;5047739;28;20467;-83
2022/09/04 02:29:53;;;;;;;12.20;8.98;;;435.90;2355.20;;;;;;5044703;28;20506;-83
2022/09/04 02:32:37;;;;;;;13.32;10.15;;;435.90;2355.20;;;;;;5045423;28;20056;-83
2022/09/04 02:35:08;;;;;;;14.07;9.13;;;435.90;2355.20;;;;;;5066121;28;20408;-83
2022/09/04 02:37:50;;;;;;;12.70;9.18;;;435.90;2355.20;;;;;;5046307;28;20040;-83
2022/09/04 02:40:31;;;;;;;13.65;9.88;;;436.00;2355.20;;;;;;5055420;28;20078;-84
2022/09/04 02:43:06;;;;;;;11.98;9.43;;;436.10;2355.20;;;;;;5046338;28;20129;-83
2022/09/04 02:46:10;;;;;;;12.40;9.93;;;436.10;2355.20;;;;;;5042239;28;20037;-84
2022/09/04 02:49:13;;;;;;;13.77;10.13;;;436.10;2355.20;;;;;;5054380;28;20031;-84
2022/09/04 02:51:52;;;;;;;13.50;9.75;;;436.10;2355.20;;;;;;5056520;28;20040;-83
2022/09/04 02:54:26;;;;;;;13.40;10.35;;;435.90;2355.20;;;;;;5051240;28;20041;-83
2022/09/04 02:57:16;;;;;;;13.23;10.02;;;436.10;2355.20;;;;;;5057927;28;20017;-83
2022/09/04 03:00:13;;;;;;;13.65;10.70;;;436.10;2355.20;;;;;;5062708;28;20016;-83
2022/09/04 03:02:50;;;;;;;;;;;436.10;2355.20;;;;;;5069904;28;20016;-83
2022/09/04 03:05:31;;;;;;;13.80;10.05;;;436.10;2355.20;;;;;;5066691;28;20468;-83
2022/09/04 03:08:17;;;;;;;16.60;9.25;;;436.10;2355.20;;;;;;5066061;28;20166;-83
2022/09/04 03:10:55;;;;;;;17.00;10.60;;;460.90;2380.80;;;;;;5065800;28;20025;-83
2022/09/04 03:13:49;;;;;;;12.05;10.35;;;460.80;2380.80;;;;;;5061876;28;20040;-83
2022/09/04 03:16:23;;;;;;;14.13;10.02;;;460.80;2380.80;;;;;;5066692;28;20048;-83
2022/09/04 03:19:06;;;;;;;12.60;10.32;;;460.80;2380.80;;;;;;5066194;28;20131;-83
2022/09/04 03:21:41;;;;;;;12.23;9.70;;;436.10;2355.20;;;;;;5062938;28;20540;-83
2022/09/04 03:24:17;;;;;;;11.60;10.00;;;436.10;2355.20;;;;;;5059674;28;20111;-83
2022/09/04 03:27:19;;;;;;;12.45;9.25;;;436.10;2355.20;;;;;;5071539;28;20028;-83
2022/09/04 03:29:54;;;;;;;12.38;8.88;;;436.10;2355.20;;;;;;5084154;28;20124;-83
2022/09/04 03:32:32;;;;;;;14.10;10.55;;;460.80;2380.80;;;;;;5101163;28;20031;-82
2022/09/04 03:35:17;;;;;;;13.23;9.38;;;436.10;2355.20;;;;;;5099039;28;20024;-83
2022/09/04 03:37:46;;;;;;;10.88;8.63;;;436.00;2355.20;;;;;;5067393;28;20103;-84
2022/09/04 03:40:20;;;;;;;10.57;8.60;;;436.10;2355.20;;;;;;5083716;28;20023;-83
2022/09/04 03:42:55;;;;;;;13.57;9.27;;;436.00;2355.20;;;;;;5087912;28;20031;-90
2022/09/04 03:45:37;;;;;;;11.30;9.50;;;436.10;2355.20;;;;;;5073486;28;20033;-90
2022/09/04 03:48:20;;;;;;;13.88;8.98;;;436.10;2355.20;;;;;;5108442;28;20029;-90
2022/09/04 03:50:56;;;;;;;12.63;9.55;;;436.10;2355.20;;;;;;5087560;28;20464;-91
2022/09/04 03:53:31;;;;;;;11.77;9.63;;;436.10;2355.20;;;;;;5097587;28;20107;-92
2022/09/04 03:56:09;;;;;;;11.63;8.60;;;436.10;2355.20;;;;;;5086868;28;20024;-84
2022/09/04 03:58:53;;;;;;;11.82;9.02;;;436.10;2355.20;;;;;;5099270;28;20021;-90
2022/09/04 04:01:43;;;;;;;13.50;9.00;;;436.10;2355.20;;;;;;5108397;28;20050;-88
2022/09/04 04:04:42;;;;;;;9.48;7.88;;;436.10;2355.20;;;;;;5087637;28;20028;-91
2022/09/04 04:07:34;;;;;;;13.10;8.95;;;460.80;2380.80;;;;;;5094455;28;20044;-92
2022/09/04 04:10:16;;;;;;;11.45;8.30;;;460.80;2380.80;;;;;;5089825;28;20485;-92
2022/09/04 04:13:12;;;;;;;13.38;8.40;;;436.10;2355.20;;;;;;5098456;28;20024;-90
2022/09/04 04:15:44;;;;;;;12.07;7.83;;;436.10;2355.20;;;;;;5071313;28;20075;-91
2022/09/04 04:18:13;;;;;;;11.13;8.48;;;436.10;2355.20;;;;;;5090548;28;20120;-90
2022/09/04 04:21:00;;;;;;;12.02;8.68;;;436.10;2355.20;;;;;;5095123;28;20020;-91
2022/09/04 04:23:56;;;;;;;11.70;7.88;;;460.80;2380.80;;;;;;5088993;28;20020;-89
2022/09/04 04:26:58;;;;;;;14.82;10.18;;;436.10;2355.20;;;;;;5069563;28;20025;-92
2022/09/04 04:29:33;;;;;;;15.50;9.43;;;436.10;2355.20;;;;;;5093234;28;20037;-91
2022/09/04 04:32:27;;;;;;;13.48;8.77;;;436.10;2355.20;;;;;;5079670;28;20009;-90
2022/09/04 04:35:12;;;;;;;11.85;9.23;;;460.80;2380.80;;;;;;5093301;28;20020;-90
2022/09/04 04:38:12;;;;;;;10.35;8.20;;;460.80;2380.80;;;;;;5089460;28;20024;-87
2022/09/04 04:41:05;;;;;;;11.75;9.10;;;460.90;2380.80;;;;;;5074907;28;20060;-92
2022/09/04 04:43:47;;;;;;;14.60;9.50;;;461.00;2380.80;;;;;;5088240;28;20032;-86
2022/09/04 04:46:28;;;;;;;12.32;9.10;;;461.00;2380.80;;;;;;5080309;28;20020;-86
2022/09/04 04:49:14;;;;;;;11.82;8.80;;;460.90;2380.80;;;;;;5091401;28;20171;-83
2022/09/04 04:51:58;;;;;;;17.30;9.63;;;460.90;2380.80;;;;;;5080500;28;20107;-92
2022/09/04 04:55:05;;;;;;;11.20;9.10;;;460.90;2380.80;;;;;;5101455;28;20587;-93
2022/09/04 04:57:37;;;;;;;12.10;8.85;;;460.90;2380.80;;;;;;5034274;28;20033;-95
2022/09/04 05:00:26;;;;;;;9.13;8.15;;;461.00;2380.80;;;;;;5076157;28;20025;-94
2022/09/04 05:03:15;;;;;;;10.70;8.60;;;461.00;2380.80;;;;;;5067340;28;20020;-92
2022/09/04 05:05:59;;;;;;;13.23;8.73;;;460.90;2380.80;;;;;;5045905;28;20037;-93
2022/09/04 05:08:46;;;;;;;10.20;8.52;;;460.90;2380.80;;;;;;5033749;28;20021;-92
2022/09/04 05:11:52;;;;;;;11.13;8.57;;;460.90;2380.80;;;;;;5033927;28;20418;-90
2022/09/04 05:14:26;;;;;;;11.27;9.10;;;461.00;2380.80;;;;;;5068187;28;20040;-87
2022/09/04 05:17:43;;;;;;;10.40;8.10;;;461.10;2380.80;;;;;;5033488;28;20041;-91
2022/09/04 05:20:43;;;;;;;10.20;8.35;;;461.20;2380.80;;;;;;4991002;28;20055;-88
2022/09/04 05:23:15;;;;;;;13.20;8.95;;;461.20;2380.80;;;;;;4993018;28;20037;-85
2022/09/04 05:25:50;;;;;;;16.35;8.40;;;461.30;2380.80;;;;;;4990632;28;20500;-87
2022/09/04 05:28:24;;;;;;;9.57;7.82;;;461.20;2380.80;;;;;;4990751;28;20038;-82
2022/09/04 05:30:55;;;;;;;10.45;8.23;;;461.30;2380.80;;;;;;4977157;28;20069;-87
2022/09/04 05:33:40;;;;;;;16.30;9.15;;;461.40;2380.80;;;;;;5005699;28;20017;-82
2022/09/04 05:36:18;;;;;;;15.85;7.45;;;461.40;2380.80;;;;;;5029774;28;20110;-89
2022/09/04 05:38:53;;;;;;;10.73;8.10;;;461.40;2380.80;;;;;;5007570;28;20115;-93
2022/09/04 05:41:40;;;;;;;13.00;8.30;;;461.50;2380.80;;;;;;5014652;28;20029;-93
2022/09/04 05:44:46;;;;;;;13.90;8.00;;;461.60;2380.80;;;;;;4998744;28;20092;-85
2022/09/04 05:47:15;;;;;;;12.23;6.68;;;461.60;2380.80;;;;;;4957587;28;20047;-87
2022/09/04 05:50:06;;;;;;;7.25;6.45;;;461.70;2380.80;;;;;;4957420;28;20055;-91
2022/09/04 05:53:05;;;;;;;15.57;6.85;;;486.40;2380.80;;;;;;4940724;29;20101;-90
2022/09/04 05:55:41;;;;;;;8.90;5.55;;;486.50;2380.80;;;;;;4958285;28;20132;-90
2022/09/04 05:58:32;;;;;;;8.27;5.80;;;486.50;2380.80;;;;;;4995609;28;20038;-84
2022/09/04 06:01:26;;;;;;;11.40;5.68;;;486.60;2380.80;;;;;;4980916;28;20491;-89
2022/09/04 06:03:54;;;;;;;10.50;5.95;;;486.60;2380.80;;;;;;4993578;28;20034;-83
2022/09/04 06:06:42;;;;;;;15.00;5.90;;;486.70;2380.80;;;;;;4997649;28;20053;-85
2022/09/04 06:09:39;;;;;;;8.45;6.80;;;486.70;2380.80;;;;;;4999373;28;20037;-84
2022/09/04 06:12:41;;;;;;;9.68;6.30;;;486.80;2380.80;;;;;;4989965;28;20472;-86
2022/09/04 06:15:13;;;;;;;11.80;6.63;;;486.80;2380.80;;;;;;4996800;28;20040;-83
2022/09/04 06:17:45;;;;;;;9.93;6.40;;;;;;;;;;5003094;28;20038;-83
2022/09/04 06:20:47;;;;;;;8.63;7.28;;;486.90;2380.80;;;;;;5002880;28;20026;-82
2022/09/04 06:23:56;;;;;;;9.00;7.22;;;487.20;2380.80;;;;;;5019145;28;20088;-89
2022/09/04 06:26:47;;;;;;;9.88;7.50;;;487.30;2380.80;;;;;;5094336;28;20059;-84
2022/09/04 06:29:31;;;;;;;12.23;8.25;;;487.30;2380.80;;;;;;5083331;28;20075;-84
2022/09/04 06:32:11;;;;;;;18.77;8.57;;;487.30;2380.80;;;;;;5082951;28;20530;-83
2022/09/04 06:34:57;;;;;;;12.20;8.60;;;512.00;2380.80;;;;;;5081037;28;20032;-83
2022/09/04 06:37:52;;;;;;;15.23;7.90;;;487.30;2380.80;;;;;;5084910;28;20047;-81
2022/09/04 06:40:55;;;;;;;14.18;8.98;;;512.00;2380.80;;;;;;5078232;28;20035;-81
2022/09/04 06:43:33;;;;;;;12.82;8.10;;;512.00;2380.80;;;;;;5079019;28;20078;-82
2022/09/04 06:46:02;;;;;;;13.63;9.25;;;512.10;2380.80;;;;;;5084078;28;20035;-83
2022/09/04 06:48:34;;;;;;;14.07;9.02;;;512.10;2380.80;;;;;;5081421;28;20473;-87
2022/09/04 06:51:31;;;;;;;12.07;9.10;;;512.20;2380.80;;;;;;5074601;28;20025;-81
2022/09/04 06:54:15;;;;;;;;;;;512.40;2380.80;;;;;;5092702;28;20030;-80
2022/09/04 06:57:07;;;;;;;17.38;10.80;;;512.40;2380.80;;;;;;5094380;28;20362;-78
2022/09/04 06:59:45;;;;;;;14.77;10.15;;;512.50;2380.80;;;;;;5081353;28;20482;-79
2022/09/04 07:02:15;;;;;;;16.83;11.70;;;512.90;2380.80;;;;;;5078430;28;20505;-79
2022/09/04 07:05:08;;;;;;;17.10;11.70;;;537.60;2406.40;;;;;;5093156;28;20016;-78
2022/09/04 07:08:02;;;;;;;14.88;11.68;;;537.70;2406.40;;;;;;5092473;28;20558;-79
2022/09/04 07:10:51;;;;;;;18.40;11.32;;;537.90;2406.40;;;;;;5081479;28;20039;-80
2022/09/04 07:13:44;;;;;;;16.15;11.55;;;538.00;2406.40;;;;;;5080313;28;20072;-79
2022/09/04 07:16:31;;;;;;;16.10;12.70;;;538.00;2406.40;;;;;;5083220;28;20048;-79
2022/09/04 07:19:23;;;;;;;18.55;12.45;;;538.00;2406.40;;;;;;5081809;28;20033;-79
2022/09/04 07:22:28;;;;;;;16.30;13.35;;;538.00;2406.40;;;;;;5066499;28;20016;-77
2022/09/04 07:25:21;;;;;;;19.67;13.75;;;538.00;2406.40;;;;;;5087040;28;20505;-78
2022/09/04 07:28:05;;;;;;;24.67;14.15;;;538.10;2406.40;;;;;;5087664;28;20040;-77
2022/09/04 07:30:36;;;;;;;25.25;14.00;;;;;;;;;;5093434;28;20032;-79
2022/09/04 07:33:11;;;;;;;21.83;13.65;;;538.30;2406.40;;;;;;5091895;28;20020;-80
2022/09/04 07:36:01;;;;;;;15.93;12.90;;;538.40;2406.40;;;;;;5093796;28;20028;-80
2022/09/04 07:38:45;;;;;;;21.00;14.02;;;538.50;2406.40;;;;;;5079869;28;20032;-80
2022/09/04 07:41:29;;;;;;;18.33;12.57;;;563.20;2432.00;;;;;;5081393;28;20020;-79
2022/09/04 07:44:02;;;;;;;19.73;13.45;;;563.20;2432.00;;;;;;5093379;28;20028;-80
2022/09/04 07:46:33;;;;;;;18.77;13.10;;;563.30;2432.00;;;;;;5082251;28;20090;-80
2022/09/04 07:49:25;;;;;;;18.75;13.77;;;563.40;2432.00;;;;;;5080179;28;20040;-80
2022/09/04 07:52:07;;;;;;;22.73;14.02;;;563.20;2432.00;;;;;;5005516;28;20026;-79
2022/09/04 07:54:39;;;;;;;16.88;13.23;;;563.20;2432.00;;;;;;5013347;28;20022;-79
2022/09/04 07:57:42;;;;;;;23.08;14.02;;;538.50;2406.40;;;;;;5030105;28;20033;-80
2022/09/04 08:00:21;;;;;;;19.20;13.52;;;538.50;2406.40;;;;;;5017801;28;20028;-79
2022/09/04 08:03:12;;;;;;;19.35;14.13;;;538.50;2406.40;;;;;;5014853;28;20095;-80
2022/09/04 08:05:48;;;;;;;24.02;15.07;;;538.50;2406.40;;;;;;5030552;28;20495;-80
2022/09/04 08:08:39;;;;;;;19.88;14.32;;;538.50;2406.40;;;;;;5004761;28;20073;-79
2022/09/04 08:11:17;;;;;;;28.98;15.60;;;563.20;2432.00;;;;;;5013730;28;20498;-79
2022/09/04 08:14:20;;;;;;;15.63;12.68;;;563.20;2432.00;;;;;;5030216;28;20030;-78
2022/09/04 08:16:58;;;;;;;20.52;13.73;;;563.40;2432.00;;;;;;5010111;28;20128;-79
2022/09/04 08:19:33;;;;;;;22.63;14.25;;;563.60;2432.00;;;;;;5011847;28;20531;-79
2022/09/04 08:22:01;;;;;;;18.20;13.45;;;563.60;2432.00;;;;;;5019514;28;20026;-78
2022/09/04 08:24:36;;;;;;;20.30;14.70;;;563.70;2432.00;;;;;;4999350;28;20041;-79
2022/09/04 08:27:28;;;;;;;16.23;12.45;;;563.70;2432.00;;;;;;5022817;28;20185;-79
2022/09/04 08:30:20;;;;;;;17.00;13.02;;;563.80;2432.00;;;;;;5078511;28;20086;-78
2022/09/04 08:32:58;;;;;;;24.08;13.40;;;563.80;2432.00;;;;;;5056864;28;20128;-78
2022/09/04 08:35:34;;;;;;;15.20;12.85;;;563.90;2432.00;;;;;;5097759;28;20036;-78
2022/09/04 08:38:21;;;;;;;19.77;13.98;;;564.00;2432.00;;;;;;5092112;28;20137;-79
2022/09/04 08:41:24;;;;;;;16.80;12.35;;;564.00;2432.00;;;;;;5092136;28;20102;-79
2022/09/04 08:44:25;;;;;;;20.92;13.23;;;564.10;2432.00;;;;;;5090356;28;20088;-79
2022/09/04 08:47:19;;;;;;;18.98;12.60;;;588.80;2432.00;;;;;;5090180;28;20089;-80
2022/09/04 08:50:22;;;;;;;25.77;14.27;;;588.90;2432.00;;;;;;5092276;28;20047;-79
2022/09/04 08:53:21;;;;;;;19.17;11.85;;;589.00;2432.00;;;;;;5083790;28;20028;-80
2022/09/04 08:56:05;;;;;;;17.73;12.43;;;589.10;2432.00;;;;;;5092106;28;20020;-80
2022/09/04 08:58:49;;;;;;;17.50;12.63;;;589.20;2432.00;;;;;;5077647;28;20642;-79
2022/09/04 09:01:55;;;;;;;17.88;12.30;;;589.30;2432.00;;;;;;5090895;28;20032;-80
2022/09/04 09:04:40;;;;;;;17.03;11.10;;;589.30;2432.00;;;;;;5090621;28;20031;-79
2022/09/04 09:07:18;;;;;;;16.63;12.32;;;589.40;2432.00;;;;;;5081165;28;20013;-79
2022/09/04 09:09:49;;;;;;;15.02;12.50;;;589.40;2432.00;;;;;;5094310;28;20031;-82
2022/09/04 09:12:34;;;;;;;15.27;13.20;;;589.40;2432.00;;;;;;5096278;28;20036;-82
2022/09/04 09:15:23;;;;;;;18.17;12.10;;;589.40;2432.00;;;;;;5095282;28;20374;-85
2022/09/04 09:18:10;;;;;;;16.17;12.15;;;589.50;2432.00;;;;;;5085243;28;20516;-82
2022/09/04 09:21:09;;;;;;;27.85;14.38;;;589.50;2432.00;;;;;;5089139;28;20020;-80
2022/09/04 09:23:52;;;;;;;19.25;12.43;;;589.50;2432.00;;;;;;5082295;28;20024;-82
2022/09/04 09:26:25;;;;;;;16.90;12.32;;;589.60;2432.00;;;;;;5087999;28;20027;-84
2022/09/04 09:29:21;;;;;;;16.85;13.20;;;589.70;2432.00;;;;;;5095402;28;20482;-84
2022/09/04 09:32:14;;;;;;;15.98;11.73;;;589.60;2432.00;;;;;;5096423;28;20111;-83
2022/09/04 09:35:07;;;;;;;23.02;12.30;;;589.50;2432.00;;;;;;5096412;28;20028;-83
2022/09/04 09:38:14;;;;;;;17.52;12.32;;;589.60;2432.00;;;;;;5094827;28;20028;-83
2022/09/04 09:40:55;;;;;;;16.40;11.98;;;589.70;2432.00;;;;;;5070966;28;20179;-85
2022/09/04 09:43:59;;;;;;;17.95;11.52;;;589.70;2432.00;;;;;;5089835;28;20024;-87
2022/09/04 09:46:47;;;;;;;19.20;11.10;;;589.70;2432.00;;;;;;5063302;28;20020;-84
2022/09/04 09:49:18;;;;;;;21.55;12.43;;;614.40;2432.00;;;;;;5082833;28;20107;-89
2022/09/04 09:52:21;;;;;;;15.10;10.93;;;614.40;2432.00;;;;;;5092221;28;20020;-87
2022/09/04 09:54:58;;;;;;;16.88;11.35;;;614.40;2432.00;;;;;;5085911;28;20024;-87
2022/09/04 09:57:45;;;;;;;15.35;11.57;;;614.60;2432.00;;;;;;5073009;28;20020;-89
2022/09/04 10:00:16;;;;;;;15.70;11.38;;;614.60;2432.00;;;;;;5094570;28;20029;-90
2022/09/04 10:02:50;;;;;;;11.27;9.45;;;614.70;2432.00;;;;;;5094904;28;20379;-87
2022/09/04 10:05:41;;;;;;;14.85;10.45;;;614.80;2432.00;;;;;;5094964;28;20032;-87
2022/09/04 10:08:57;;;;;;;18.77;11.35;;;614.80;2432.00;;;;;;5079180;28;20035;-85
2022/09/04 10:11:59;;;;;;;13.30;10.45;;;615.00;2432.00;;;;;;4994264;28;20053;-84
2022/09/04 10:14:40;;;;;;;11.23;9.90;;;615.10;2432.00;;;;;;4970279;28;20117;-86
2022/09/04 10:17:27;;;;;;;16.20;11.85;;;615.30;2432.00;;;;;;4993338;28;20038;-90
2022/09/04 10:20:29;;;;;;;14.18;11.18;;;615.30;2432.00;;;;;;4993661;28;20034;-90
2022/09/04 10:23:04;;;;;;;15.20;10.73;;;615.20;2432.00;;;;;;4992082;28;20137;-83
2022/09/04 10:25:44;;;;;;;14.25;11.50;;;615.20;2432.00;;;;;;4994111;28;20538;-80
2022/09/04 10:28:13;;;;;;;17.17;11.00;;;640.00;2432.00;;;;;;4973764;28;20018;-81
2022/09/04 10:31:09;;;;;;;15.80;11.70;;;640.00;2432.00;;;;;;4993184;28;20038;-83
2022/09/04 10:33:53;;;;;;;13.15;10.80;;;640.10;2432.00;;;;;;4992206;28;20412;-84
2022/09/04 10:36:48;;;;;;;31.95;12.60;;;640.50;2432.00;;;;;;4988636;28;20038;-80
2022/09/04 10:42:47;;;;;;;13.60;11.93;;;640.30;2432.00;;;;;;5051302;28;20077;-86
2022/09/04 10:45:28;;;;;;;14.57;11.98;;;640.50;2432.00;;;;;;5094012;28;20020;-84
2022/09/04 10:48:15;;;;;;;14.27;12.68;;;640.40;2432.00;;;;;;5074671;28;20059;-86
2022/09/04 10:51:19;;;;;;;16.65;11.82;;;640.40;2432.00;;;;;;5092404;28;20029;-86
2022/09/04 10:54:07;;;;;;;17.38;13.05;;;640.20;2432.00;;;;;;5084665;28;20059;-83
2022/09/04 10:56:45;;;;;;;13.98;12.45;;;640.20;2432.00;;;;;;5093073;28;20047;-82
2022/09/04 10:59:28;;;;;;;13.73;11.65;;;640.30;2432.00;;;;;;5094393;28;20047;-86
2022/09/04 11:02:15;;;;;;;14.60;12.68;;;640.50;2432.00;;;;;;5094890;28;20027;-86
2022/09/04 11:05:19;;;;;;;14.75;12.18;;;640.60;2432.00;;;;;;5079276;28;20041;-86
2022/09/04 11:07:55;;;;;;;13.43;12.02;;;640.70;2432.00;;;;;;5093344;28;20077;-84
2022/09/04 11:10:39;;;;;;;;;;;640.70;2432.00;;;;;;5093698;28;20051;-84
2022/09/04 11:13:42;;;;;;;15.40;13.80;;;640.90;2432.00;;;;;;5084299;28;19912;-85
2022/09/04 11:16:45;;;;;;;14.68;12.73;;;640.90;2432.00;;;;;;5058025;28;20033;-85
2022/09/04 11:19:21;;;;;;;14.13;12.73;;;640.70;2432.00;;;;;;5067962;28;20039;-85
2022/09/04 11:22:18;;;;;;;19.60;12.00;;;640.60;2432.00;;;;;;5067626;28;20016;-84
2022/09/04 11:25:17;;;;;;;18.00;13.75;;;665.60;2355.20;;;;;;5094055;28;20016;-84
2022/09/04 11:28:39;;;;;;;14.35;12.85;;;666.10;2432.00;;;;;;5067249;28;20028;-83
2022/09/04 11:31:20;;;;;;;21.05;12.98;;;666.30;2176.00;;;;;;5024149;28;20033;-80
2022/09/04 11:34:31;;;;;;;16.55;14.27;;;691.20;2150.40;;;;;;5034549;28;20025;-82
2022/09/04 11:37:14;;;;;;;15.38;13.25;;;691.30;2278.40;;;;;;5034385;28;20086;-81
2022/09/04 11:39:51;;;;;;;18.48;14.25;;;691.60;2227.20;;;;;;5030031;28;20033;-82
2022/09/04 11:42:40;;;;;;;16.85;14.20;;;666.30;2432.00;;;;;;5030795;28;20048;-81
2022/09/04 11:45:15;;;;;;;19.77;14.13;;;665.90;2406.40;;;;;;5013910;28;20068;-80
2022/09/04 11:47:56;;;;;;;23.10;14.43;;;665.60;2406.40;;;;;;5030678;28;20057;-80
2022/09/04 11:50:51;;;;;;;17.67;14.52;;;640.90;2432.00;;;;;;5013358;28;20406;-80
2022/09/04 11:53:28;;;;;;;19.17;15.45;;;640.90;2304.00;;;;;;5013983;28;20033;-81
2022/09/04 11:56:05;;;;;;;17.83;15.60;;;640.90;2355.20;;;;;;5013906;28;20025;-81
2022/09/04 11:58:49;;;;;;;17.63;13.85;;;665.60;2304.00;;;;;;5014282;28;20596;-81
2022/09/04 12:01:33;;;;;;;16.95;14.27;;;665.60;2124.80;;;;;;5028937;28;20022;-81
2022/09/04 12:04:40;;;;;;;22.98;16.17;;;665.60;2176.00;;;;;;5022552;28;20036;-81
2022/09/04 12:07:12;;;;;;;17.05;15.23;;;665.60;2201.60;;;;;;5004239;28;20511;-80
2022/09/04 12:09:54;;;;;;;17.42;15.23;;;665.60;2227.20;;;;;;4984403;28;20146;-82
2022/09/04 12:12:40;;;;;;;14.68;12.93;;;640.90;2329.60;;;;;;4975970;28;20065;-79
2022/09/04 12:15:32;;;;;;;;;;;640.90;2201.60;;;;;;4979340;28;20022;-81
2022/09/04 12:18:17;;;;;;;19.25;15.77;;;640.90;2201.60;;;;;;4960954;28;20507;-81
2022/09/04 12:21:11;;;;;;;16.38;14.65;;;665.90;2380.80;;;;;;4937609;28;20027;-80
2022/09/04 12:23:55;;;;;;;17.55;15.00;;;666.20;2252.80;;;;;;4937767;28;20670;-80
2022/09/04 12:26:47;;;;;;;14.90;12.15;;;691.20;2073.60;;;;;;4957886;28;20082;-80
2022/09/04 12:29:28;;;;;;;13.13;11.75;;;691.40;1868.80;;;;;;4956643;28;20070;-80
2022/09/04 12:32:12;;;;;;;22.00;14.50;;;691.70;1792.00;;;;;;4933557;28;20031;-81
2022/09/04 12:34:53;;;;;;;16.55;13.25;;;691.90;1945.60;;;;;;4957053;28;20139;-80
2022/09/04 12:37:44;;;;;;;15.80;13.55;;;692.00;1945.60;;;;;;4933815;28;20087;-80
2022/09/04 12:41:06;;;;;;;15.25;13.65;;;692.00;1920.00;;;;;;4876289;29;20037;-81
2022/09/04 12:44:03;;;;;;;13.30;11.43;;;716.90;1817.60;;;;;;4857158;29;20123;-80
2022/09/04 12:46:43;;;;;;;15.52;12.27;;;717.00;1664.00;;;;;;4881459;29;20559;-81
2022/09/04 12:49:12;;;;;;;13.25;11.85;;;717.20;1715.20;;;;;;4895082;29;20068;-80
2022/09/04 12:51:50;;;;;;;14.63;13.13;;;717.40;1715.20;;;;;;4895118;29;20048;-81
2022/09/04 12:55:00;;;;;;;13.85;12.43;;;717.60;1689.60;;;;;;4905637;29;20097;-81
2022/09/04 12:57:29;;;;;;;14.63;11.88;;;;;;;;;;4932886;29;20514;-82
2022/09/04 13:00:05;;;;;;;15.80;13.95;;;742.40;1638.40;;;;;;4917057;29;20936;-82
2022/09/04 13:02:48;;;;;;;14.90;13.40;;;742.50;1664.00;;;;;;4932914;29;20031;-82
2022/09/04 13:05:43;;;;;;;17.58;13.05;;;742.60;1638.40;;;;;;4916885;29;20040;-83
2022/09/04 13:08:24;;;;;;;14.38;11.43;;;742.40;1715.20;;;;;;4922085;29;20034;-82
2022/09/04 13:10:55;;;;;;;16.63;13.23;;;717.40;1664.00;;;;;;4913214;29;20048;-81
2022/09/04 13:13:21;;;;;;;13.48;12.07;;;717.40;1740.80;;;;;;4918118;29;20040;-81
2022/09/04 13:15:53;;;;;;;12.63;11.32;;;717.40;1664.00;;;;;;4925616;29;20046;-82
2022/09/04 13:18:33;;;;;;;15.20;12.73;;;717.50;1638.40;;;;;;4951363;28;20097;-79
2022/09/04 13:21:24;;;;;;;13.73;12.25;;;717.60;1638.40;;;;;;4990044;28;20026;-79
2022/09/04 13:24:19;;;;;;;15.48;12.85;;;742.40;1664.00;;;;;;5043601;28;20028;-78
2022/09/04 13:26:53;;;;;;;17.23;13.43;;;742.50;1638.40;;;;;;4973026;28;20035;-79
2022/09/04 13:29:28;;;;;;;15.50;14.00;;;742.50;1740.80;;;;;;4988594;28;20050;-80
2022/09/04 13:32:35;;;;;;;13.57;12.20;;;742.40;1817.60;;;;;;4981475;28;20116;-79
2022/09/04 13:35:32;;;;;;;16.10;13.05;;;742.50;1664.00;;;;;;4991592;28;20399;-79
2022/09/04 13:38:36;;;;;;;16.15;14.45;;;717.60;1664.00;;;;;;4992071;28;20029;-78
2022/09/04 13:42:00;;;;;;;13.98;12.40;;;717.20;1664.00;;;;;;4989499;28;20029;-79